Chesterfield, Idaho
Current Conditions -  °F | °C
As of 11:53 PM on Saturday 25 Oct 2014 (Local Time) from KPIH Reporting Station
Light Rain Light Rain  
Wind Chill: 58°   Ceiling: 7000
Heat Index: 58°   Visibility: 10mi
Dew Point: 37°   Wind: 18mph
Humidity: 46%   Direction: 270°W
Pressure: 29.92"   Gusts: 41mph
Location:  42.811°N, 111.938°W
Report Text: KPIH 260553Z AUTO 27016G36KT 10SM -RA OVC070 14/03 A2992 RMK AO2 PK WND 26036/0546 RAE00B26 SLP090 P0000 60001 T01440028 10211 20133 53037
Loading
Personal Weather Stations






























Interactive Weather Map
Tropical Storm Tracking
New forecast layout! Learn more

10-Day Weather Forecast

Advertisements
Track Severe Weather on mobile